createdAt,value
2022-12-25T00:01:25.574Z,21.50
2022-12-25T00:03:53.915Z,23.08
2022-12-25T00:06:22.266Z,17.97
2022-12-25T00:08:50.194Z,18.65
2022-12-25T00:11:20.230Z,19.63
2022-12-25T00:13:48.952Z,21.65
2022-12-25T00:16:26.366Z,23.13
2022-12-25T00:18:56.551Z,21.43
2022-12-25T00:21:29.780Z,21.15
2022-12-25T00:24:15.337Z,24.70
2022-12-25T00:26:51.104Z,23.00
2022-12-25T00:29:19.402Z,22.50
2022-12-25T00:31:47.806Z,22.30
2022-12-25T00:34:15.969Z,21.70
2022-12-25T00:36:44.193Z,21.20
2022-12-25T00:39:12.086Z,22.13
2022-12-25T00:41:58.586Z,22.00
2022-12-25T00:44:26.780Z,21.03
2022-12-25T00:46:55.041Z,24.50
2022-12-25T00:49:24.173Z,24.42
2022-12-25T00:51:53.389Z,22.35
2022-12-25T00:54:22.374Z,24.33
2022-12-25T00:56:50.672Z,23.60
2022-12-25T00:59:18.957Z,22.23
2022-12-25T01:01:47.428Z,23.58
2022-12-25T01:04:15.719Z,22.52
2022-12-25T01:06:43.864Z,23.83
2022-12-25T01:09:30.525Z,22.50
2022-12-25T01:11:58.967Z,23.95
2022-12-25T01:14:26.781Z,22.90
2022-12-25T01:16:55.205Z,24.33
2022-12-25T01:19:23.294Z,22.60
2022-12-25T01:21:51.578Z,23.00
2022-12-25T01:24:19.351Z,22.25
2022-12-25T01:26:47.654Z,24.10
2022-12-25T01:29:15.579Z,24.33
2022-12-25T01:31:43.859Z,20.63
2022-12-25T01:34:11.748Z,21.93
2022-12-25T01:36:39.882Z,24.48
2022-12-25T01:39:07.862Z,22.23
2022-12-25T01:41:36.103Z,20.80
2022-12-25T01:44:16.284Z,21.83
2022-12-25T01:46:45.000Z,23.03
2022-12-25T01:49:21.699Z,22.80
2022-12-25T01:52:24.599Z,22.27
2022-12-25T01:54:58.336Z,29.98
2022-12-25T01:57:31.281Z,22.25
2022-12-25T02:00:01.223Z,21.17
2022-12-25T02:02:30.085Z,23.10
2022-12-25T02:05:06.053Z,21.80
2022-12-25T02:07:36.098Z,28.58
2022-12-25T02:10:04.128Z,23.02
2022-12-25T02:12:34.718Z,27.50
2022-12-25T02:15:06.669Z,23.52
2022-12-25T02:17:50.939Z,22.30
2022-12-25T02:20:53.546Z,22.58
2022-12-25T02:23:49.407Z,22.08
2022-12-25T02:26:38.675Z,24.07
2022-12-25T02:29:33.611Z,23.95
2022-12-25T02:32:24.978Z,23.33
2022-12-25T02:35:00.069Z,28.33
2022-12-25T02:37:43.978Z,27.70
2022-12-25T02:40:24.370Z,24.43
2022-12-25T02:43:17.053Z,28.60
2022-12-25T02:46:16.049Z,25.40
2022-12-25T02:49:14.452Z,23.25
2022-12-25T02:52:07.079Z,24.08
2022-12-25T02:54:57.054Z,23.40
2022-12-25T02:57:53.868Z,24.88
2022-12-25T03:00:40.742Z,25.08
2022-12-25T03:03:29.559Z,24.10
2022-12-25T03:06:20.709Z,23.58
2022-12-25T03:08:54.018Z,23.07
2022-12-25T03:11:34.041Z,25.05
2022-12-25T03:14:27.450Z,26.80
2022-12-25T03:16:58.506Z,29.13
2022-12-25T03:20:11.456Z,27.98
2022-12-25T03:22:59.254Z,27.67
2022-12-25T03:25:47.362Z,27.35
2022-12-25T03:28:15.290Z,23.63
2022-12-25T03:31:17.572Z,25.60
2022-12-25T03:34:25.510Z,23.90
2022-12-25T03:37:11.455Z,23.90
2022-12-25T03:40:49.626Z,25.95
2022-12-25T03:43:51.408Z,28.60
2022-12-25T03:46:42.247Z,25.38
2022-12-25T03:49:52.774Z,28.60
2022-12-25T03:52:40.344Z,29.27
2022-12-25T03:55:31.772Z,29.15
2022-12-25T03:58:19.029Z,26.38
2022-12-25T04:01:05.651Z,29.38
2022-12-25T04:03:52.292Z,27.90
2022-12-25T04:06:39.284Z,22.90
2022-12-25T04:09:25.781Z,26.20
2022-12-25T04:12:12.735Z,28.38
2022-12-25T04:14:59.270Z,26.83
2022-12-25T04:18:00.121Z,26.75
2022-12-25T04:20:46.438Z,27.57
2022-12-25T04:23:32.742Z,36.10
2022-12-25T04:26:19.263Z,25.05
2022-12-25T04:29:06.319Z,28.42
2022-12-25T04:31:53.225Z,23.45
2022-12-25T04:34:40.191Z,23.67
2022-12-25T04:37:08.217Z,22.30
2022-12-25T04:39:36.372Z,22.98
2022-12-25T04:42:04.329Z,24.83
2022-12-25T04:44:32.392Z,24.58
2022-12-25T04:47:01.131Z,23.10
2022-12-25T04:49:31.874Z,23.60
2022-12-25T04:51:59.868Z,27.70
2022-12-25T04:54:28.067Z,22.60
2022-12-25T04:56:55.778Z,22.63
2022-12-25T04:59:24.022Z,26.03
2022-12-25T05:01:51.906Z,22.85
2022-12-25T05:04:20.086Z,27.05
2022-12-25T05:06:47.918Z,22.88
2022-12-25T05:09:16.281Z,26.52
2022-12-25T05:11:44.016Z,25.10
2022-12-25T05:14:12.319Z,26.77
2022-12-25T05:16:40.759Z,31.33
2022-12-25T05:19:09.814Z,32.28
2022-12-25T05:21:37.617Z,31.27
2022-12-25T05:24:08.140Z,34.10
2022-12-25T05:26:35.881Z,34.30
2022-12-25T05:29:04.077Z,32.10
2022-12-25T05:31:31.797Z,29.45
2022-12-25T05:34:00.101Z,28.00
2022-12-25T05:36:27.889Z,33.13
2022-12-25T05:38:56.174Z,34.55
2022-12-25T05:41:25.190Z,31.27
2022-12-25T05:43:56.579Z,32.00
2022-12-25T05:46:24.264Z,26.60
2022-12-25T05:48:52.500Z,32.77
2022-12-25T05:51:20.471Z,30.00
2022-12-25T05:53:49.102Z,32.70
2022-12-25T05:56:42.467Z,29.05
2022-12-25T05:59:10.697Z,28.02
2022-12-25T06:01:38.766Z,26.43
2022-12-25T06:04:12.436Z,27.45
2022-12-25T06:06:41.661Z,31.67
2022-12-25T06:09:12.054Z,29.15
2022-12-25T06:11:40.442Z,30.48
2022-12-25T06:14:12.687Z,28.17
2022-12-25T06:16:40.898Z,30.05
2022-12-25T06:19:09.284Z,34.42
2022-12-25T06:21:37.130Z,32.00
2022-12-25T06:24:05.832Z,34.80
2022-12-25T06:26:33.872Z,35.37
2022-12-25T06:29:02.358Z,28.52
2022-12-25T06:31:30.695Z,31.08
2022-12-25T06:33:58.899Z,31.27
2022-12-25T06:36:29.581Z,31.85
2022-12-25T06:39:01.601Z,32.20
2022-12-25T06:41:30.703Z,35.97
2022-12-25T06:44:01.415Z,36.30
2022-12-25T06:46:30.508Z,28.52
2022-12-25T06:48:59.919Z,30.77
2022-12-25T06:51:32.808Z,31.37
2022-12-25T06:54:05.394Z,37.03
2022-12-25T06:56:34.155Z,27.70
2022-12-25T06:59:05.075Z,27.65
2022-12-25T07:01:37.346Z,26.88
2022-12-25T07:04:08.684Z,28.50
2022-12-25T07:06:36.391Z,28.40
2022-12-25T07:09:04.742Z,27.15
2022-12-25T07:11:32.759Z,37.25
2022-12-25T07:14:01.081Z,29.58
2022-12-25T07:16:29.338Z,29.80
2022-12-25T07:19:00.694Z,31.88
2022-12-25T07:21:28.958Z,36.55
2022-12-25T07:23:57.328Z,38.15
2022-12-25T07:26:25.115Z,29.25
2022-12-25T07:28:53.706Z,27.27
2022-12-25T07:31:21.794Z,31.42
2022-12-25T07:33:54.344Z,28.88
2022-12-25T07:36:22.622Z,26.48
2022-12-25T07:38:51.046Z,38.20
2022-12-25T07:41:19.080Z,27.83
2022-12-25T07:43:52.181Z,37.03
2022-12-25T07:46:22.202Z,42.97
2022-12-25T07:48:50.439Z,50.13
2022-12-25T07:51:18.230Z,49.25
2022-12-25T07:53:46.586Z,40.47
2022-12-25T07:56:17.633Z,33.10
2022-12-25T07:58:46.691Z,30.52
2022-12-25T08:04:14.933Z,28.90
2022-12-25T08:06:42.878Z,29.53
2022-12-25T08:09:13.228Z,34.28
2022-12-25T08:15:12.667Z,28.80
2022-12-25T08:18:08.316Z,31.02
2022-12-25T08:20:36.471Z,40.50
2022-12-25T08:23:07.118Z,31.52
2022-12-25T08:25:35.588Z,27.42
2022-12-25T08:28:04.065Z,28.48
2022-12-25T08:30:32.515Z,31.25
2022-12-25T08:33:00.734Z,24.70
2022-12-25T08:35:28.538Z,23.98
2022-12-25T08:37:56.766Z,23.33
2022-12-25T08:40:25.003Z,24.67
2022-12-25T08:42:57.583Z,23.88
2022-12-25T08:45:28.521Z,28.97
2022-12-25T08:48:01.168Z,28.20
2022-12-25T08:50:29.019Z,27.55
2022-12-25T08:52:57.357Z,27.95
2022-12-25T08:55:25.340Z,28.25
2022-12-25T08:57:54.696Z,29.20
2022-12-25T09:00:22.572Z,28.40
2022-12-25T09:02:51.515Z,25.10
2022-12-25T09:05:19.457Z,25.08
2022-12-25T09:07:47.611Z,27.17
2022-12-25T09:10:15.576Z,33.87
2022-12-25T09:12:43.953Z,44.33
2022-12-25T09:15:11.931Z,29.55
2022-12-25T09:17:40.406Z,28.00
2022-12-25T09:20:23.086Z,72.18
2022-12-25T09:22:51.349Z,35.97
2022-12-25T09:25:19.344Z,24.88
2022-12-25T09:27:47.616Z,26.27
2022-12-25T09:30:25.493Z,33.13
2022-12-25T09:32:54.017Z,24.33
2022-12-25T09:35:22.117Z,24.67
2022-12-25T09:37:50.637Z,26.33
2022-12-25T09:43:21.640Z,22.50
2022-12-25T09:46:09.473Z,23.67
2022-12-25T09:48:44.355Z,24.40
2022-12-25T09:51:16.965Z,23.95
2022-12-25T09:54:15.065Z,20.08
2022-12-25T09:56:43.197Z,20.52
2022-12-25T09:59:39.272Z,20.10
2022-12-25T10:02:19.364Z,20.77
2022-12-25T10:05:13.357Z,20.38
2022-12-25T10:07:57.457Z,23.67
2022-12-25T10:10:50.036Z,25.67
2022-12-25T10:13:33.608Z,29.40
2022-12-25T10:19:12.059Z,73.93
2022-12-25T10:21:42.111Z,56.90
2022-12-25T10:24:32.704Z,39.50
2022-12-25T10:27:05.645Z,27.90
2022-12-25T10:29:36.155Z,24.77
2022-12-25T10:32:07.285Z,32.20
2022-12-25T10:34:36.840Z,27.05
2022-12-25T10:37:05.118Z,25.17
2022-12-25T10:39:33.327Z,22.30
2022-12-25T10:42:29.906Z,22.13
2022-12-25T10:45:03.655Z,24.67
2022-12-25T10:47:44.689Z,24.65
2022-12-25T10:50:20.894Z,30.25
2022-12-25T10:53:06.629Z,23.77
2022-12-25T10:55:37.047Z,38.80
2022-12-25T10:58:06.659Z,23.77
2022-12-25T11:00:34.835Z,20.77
2022-12-25T11:03:03.768Z,24.02
2022-12-25T11:05:34.402Z,44.15
2022-12-25T11:11:06.754Z,22.03
2022-12-25T11:13:48.912Z,17.40
2022-12-25T11:16:31.982Z,17.08
2022-12-25T11:19:00.844Z,19.73
2022-12-25T11:21:34.653Z,19.48
2022-12-25T11:24:05.466Z,13.30
2022-12-25T11:27:00.002Z,17.42
2022-12-25T11:29:46.978Z,14.32
2022-12-25T11:32:58.978Z,14.48
2022-12-25T11:35:32.633Z,12.32
2022-12-25T11:38:00.950Z,11.10
2022-12-25T11:40:54.536Z,12.82
2022-12-25T11:43:48.107Z,12.38
2022-12-25T11:46:31.228Z,8.82
2022-12-25T11:49:08.861Z,19.73
2022-12-25T11:51:41.878Z,15.40
2022-12-25T11:54:21.996Z,9.63
2022-12-25T11:56:51.019Z,7.95
2022-12-25T11:59:23.236Z,12.18
2022-12-25T12:01:59.245Z,8.02
2022-12-25T12:04:40.466Z,8.17
2022-12-25T12:07:22.663Z,8.30
2022-12-25T12:10:06.248Z,9.18
2022-12-25T12:12:54.702Z,8.65
2022-12-25T12:15:36.231Z,10.52
2022-12-25T12:18:22.696Z,9.30
2022-12-25T12:21:26.822Z,9.77
2022-12-25T12:24:07.507Z,8.05
2022-12-25T12:26:41.605Z,8.18
2022-12-25T12:29:30.137Z,10.80
2022-12-25T12:32:03.115Z,11.20
2022-12-25T12:34:52.404Z,9.82
2022-12-25T12:37:31.272Z,11.25
2022-12-25T12:40:00.620Z,11.57
2022-12-25T12:42:35.268Z,10.07
2022-12-25T12:45:17.274Z,6.90
2022-12-25T12:47:49.273Z,20.67
2022-12-25T12:50:26.730Z,13.35
2022-12-25T12:52:55.098Z,8.02
2022-12-25T12:55:31.736Z,9.40
2022-12-25T12:58:01.971Z,9.50
2022-12-25T13:00:48.971Z,15.15
2022-12-25T13:03:43.404Z,11.95
2022-12-25T13:06:39.624Z,12.77
2022-12-25T13:09:44.854Z,10.10
2022-12-25T13:12:15.761Z,11.20
2022-12-25T13:14:50.975Z,9.30
2022-12-25T13:17:25.637Z,15.50
2022-12-25T13:20:00.280Z,20.15
2022-12-25T13:22:35.170Z,14.85
2022-12-25T13:25:17.837Z,12.90
2022-12-25T13:27:46.376Z,12.93
2022-12-25T13:30:29.461Z,11.43
2022-12-25T13:33:01.393Z,10.73
2022-12-25T13:35:30.989Z,10.60
2022-12-25T13:37:59.516Z,23.43
2022-12-25T13:40:29.207Z,13.52
2022-12-25T13:43:00.501Z,17.52
2022-12-25T13:45:31.034Z,13.70
2022-12-25T13:48:16.380Z,16.85
2022-12-25T13:50:49.747Z,29.60
2022-12-25T13:56:29.909Z,18.77
2022-12-25T13:58:59.651Z,19.77
2022-12-25T14:01:29.051Z,12.10
2022-12-25T14:03:57.870Z,14.93
2022-12-25T14:10:04.628Z,23.50
2022-12-25T14:12:34.105Z,20.05
2022-12-25T14:15:03.899Z,14.98
2022-12-25T14:17:33.954Z,12.03
2022-12-25T14:20:08.026Z,13.45
2022-12-25T14:22:39.169Z,18.65
2022-12-25T14:25:15.736Z,18.60
2022-12-25T14:27:49.523Z,16.05
2022-12-25T14:30:18.761Z,16.47
2022-12-25T14:33:00.155Z,15.40
2022-12-25T14:35:28.559Z,14.38
2022-12-25T14:38:00.933Z,17.80
2022-12-25T14:40:33.001Z,16.20
2022-12-25T14:43:03.847Z,15.27
2022-12-25T14:45:33.511Z,14.63
2022-12-25T14:48:21.250Z,16.23
2022-12-25T14:51:04.499Z,14.52
2022-12-25T14:53:41.375Z,14.18
2022-12-25T14:56:10.770Z,16.07
2022-12-25T14:58:47.406Z,17.30
2022-12-25T15:01:37.270Z,17.33
2022-12-25T15:04:17.282Z,13.10
2022-12-25T15:07:00.312Z,15.23
2022-12-25T15:09:30.349Z,15.23
2022-12-25T15:11:58.341Z,16.42
2022-12-25T15:14:27.581Z,17.23
2022-12-25T15:17:02.222Z,17.35
2022-12-25T15:19:37.659Z,17.83
2022-12-25T15:22:06.749Z,20.73
2022-12-25T15:24:34.831Z,24.67
2022-12-25T15:27:02.784Z,19.95
2022-12-25T15:30:07.778Z,18.38
2022-12-25T15:32:24.086Z,20.35
2022-12-25T15:34:53.459Z,15.50
2022-12-25T15:37:21.531Z,16.90
2022-12-25T15:39:50.372Z,13.75
2022-12-25T15:42:23.158Z,27.73
2022-12-25T15:44:53.530Z,38.35
2022-12-25T15:47:21.738Z,42.73
2022-12-25T15:49:50.500Z,38.35
2022-12-25T15:52:18.921Z,39.50
2022-12-25T15:54:47.292Z,34.83
2022-12-25T15:57:22.888Z,31.27
2022-12-25T15:59:51.598Z,31.60
2022-12-25T16:02:21.300Z,27.75
2022-12-25T16:04:51.580Z,28.35
2022-12-25T16:07:23.441Z,26.35
2022-12-25T16:09:52.671Z,27.67
2022-12-25T16:12:20.684Z,29.87
2022-12-25T16:14:49.072Z,41.50
2022-12-25T16:17:17.227Z,43.60
2022-12-25T16:19:45.273Z,74.43
2022-12-25T16:22:14.611Z,40.30
2022-12-25T16:24:43.102Z,47.50
2022-12-25T16:27:11.192Z,44.40
2022-12-25T16:29:40.032Z,51.60
2022-12-25T16:32:10.157Z,61.72
2022-12-25T16:34:38.496Z,69.65
2022-12-25T16:37:07.021Z,75.63
2022-12-25T16:39:35.240Z,70.65
2022-12-25T16:42:03.028Z,47.15
2022-12-25T16:44:31.368Z,35.03
2022-12-25T16:46:59.488Z,27.13
2022-12-25T16:49:27.902Z,28.40
2022-12-25T16:51:55.956Z,22.83
2022-12-25T16:54:24.220Z,23.58
2022-12-25T16:56:52.626Z,34.25
2022-12-25T16:59:21.238Z,32.63
2022-12-25T17:01:49.415Z,32.50
2022-12-25T17:04:18.256Z,27.27
2022-12-25T17:06:46.150Z,29.42
2022-12-25T17:09:14.462Z,29.20
2022-12-25T17:11:42.236Z,29.98
2022-12-25T17:14:11.503Z,31.23
2022-12-25T17:16:41.070Z,36.67
2022-12-25T17:19:19.267Z,45.70
2022-12-25T17:21:48.085Z,44.78
2022-12-25T17:24:17.290Z,41.22
2022-12-25T17:26:46.123Z,36.10
2022-12-25T17:29:21.421Z,33.55
2022-12-25T17:31:51.230Z,29.95
2022-12-25T17:34:19.936Z,33.45
2022-12-25T17:36:48.495Z,46.10
2022-12-25T17:39:17.537Z,59.20
2022-12-25T17:41:45.874Z,68.20
2022-12-25T17:44:14.186Z,45.72
2022-12-25T17:46:42.635Z,36.60
2022-12-25T17:49:17.237Z,61.30
2022-12-25T17:51:46.531Z,81.17
2022-12-25T17:54:15.475Z,55.50
2022-12-25T17:56:43.844Z,32.13
2022-12-25T17:59:19.016Z,34.58
2022-12-25T18:01:48.661Z,31.70
2022-12-25T18:04:17.296Z,37.03
2022-12-25T18:06:45.671Z,35.85
2022-12-25T18:09:14.300Z,35.17
2022-12-25T18:11:43.943Z,31.52
2022-12-25T18:14:16.061Z,30.63
2022-12-25T18:16:45.912Z,32.53
2022-12-25T18:19:18.923Z,45.80
2022-12-25T18:21:46.952Z,53.50
2022-12-25T18:24:15.286Z,45.67
2022-12-25T18:26:44.012Z,28.75
2022-12-25T18:29:12.160Z,38.83
2022-12-25T18:31:44.270Z,41.25
2022-12-25T18:34:12.876Z,38.58
2022-12-25T18:36:40.913Z,33.60
2022-12-25T18:39:09.675Z,34.03
2022-12-25T18:41:57.786Z,41.70
2022-12-25T18:44:26.489Z,34.22
2022-12-25T18:46:54.468Z,37.75
2022-12-25T18:49:23.206Z,37.40
2022-12-25T18:51:51.184Z,36.33
2022-12-25T18:54:23.066Z,29.73
2022-12-25T18:56:53.555Z,36.45
2022-12-25T18:59:23.802Z,51.92
2022-12-25T19:01:51.741Z,74.55
2022-12-25T19:04:41.494Z,86.70
2022-12-25T19:07:13.113Z,73.03
2022-12-25T19:09:41.847Z,48.13
2022-12-25T19:12:09.558Z,44.33
2022-12-25T19:14:47.389Z,43.15
2022-12-25T19:17:18.694Z,39.17
2022-12-25T19:19:48.075Z,37.87
2022-12-25T19:22:16.511Z,45.88
2022-12-25T19:24:44.952Z,40.35
2022-12-25T19:27:13.338Z,45.75
2022-12-25T19:29:42.755Z,78.70
2022-12-25T19:32:10.840Z,57.27
2022-12-25T19:34:40.722Z,37.75
2022-12-25T19:37:09.952Z,34.45
2022-12-25T19:39:42.516Z,40.25
2022-12-25T19:42:36.831Z,46.05
2022-12-25T19:45:05.950Z,42.53
2022-12-25T19:47:33.823Z,43.92
2022-12-25T19:50:03.381Z,50.22
2022-12-25T19:52:31.543Z,39.63
2022-12-25T19:54:59.933Z,34.78
2022-12-25T19:57:27.743Z,29.40
2022-12-25T19:59:56.082Z,26.25
2022-12-25T20:02:24.776Z,29.05
2022-12-25T20:04:53.334Z,35.53
2022-12-25T20:07:21.258Z,37.85
2022-12-25T20:09:49.712Z,41.07
2022-12-25T20:12:17.548Z,30.98
2022-12-25T20:14:46.052Z,31.88
2022-12-25T20:17:16.156Z,32.83
2022-12-25T20:19:44.735Z,29.60
2022-12-25T20:22:12.707Z,28.73
2022-12-25T20:24:42.745Z,66.05
2022-12-25T20:27:10.489Z,43.38
2022-12-25T20:29:41.933Z,35.53
2022-12-25T20:32:11.319Z,42.80
2022-12-25T20:34:39.310Z,37.17
2022-12-25T20:37:07.509Z,35.33
2022-12-25T20:39:35.687Z,40.97
2022-12-25T20:42:08.310Z,42.92
2022-12-25T20:44:36.428Z,50.40
2022-12-25T20:47:04.298Z,49.20
2022-12-25T20:49:35.106Z,43.15
2022-12-25T20:52:05.501Z,37.80
2022-12-25T20:54:34.299Z,31.85
2022-12-25T20:57:02.587Z,59.97
2022-12-25T20:59:36.909Z,130.73
2022-12-25T21:02:06.536Z,97.88
2022-12-25T21:04:34.801Z,99.10
2022-12-25T21:07:03.206Z,58.00
2022-12-25T21:09:32.253Z,54.22
2022-12-25T21:11:59.975Z,48.20
2022-12-25T21:14:29.934Z,90.07
2022-12-25T21:16:57.961Z,98.95
2022-12-25T21:19:26.084Z,69.38
2022-12-25T21:21:53.895Z,87.60
2022-12-25T21:24:22.276Z,92.30
2022-12-25T21:26:50.274Z,94.88
2022-12-25T21:29:21.761Z,80.25
2022-12-25T21:32:28.793Z,112.65
2022-12-25T21:34:57.104Z,83.47
2022-12-25T21:37:25.102Z,91.77
2022-12-25T21:39:54.075Z,110.13
2022-12-25T21:42:21.859Z,118.00
2022-12-25T21:44:50.274Z,106.47
2022-12-25T21:47:18.052Z,96.45
2022-12-25T21:50:05.392Z,98.80
2022-12-25T21:52:33.271Z,120.53
2022-12-25T21:55:02.347Z,62.03
2022-12-25T21:57:30.385Z,93.13
2022-12-25T21:59:58.628Z,119.53
2022-12-25T22:02:26.868Z,108.57
2022-12-25T22:04:56.826Z,122.53
2022-12-25T22:07:24.618Z,111.75
2022-12-25T22:09:52.737Z,131.57
2022-12-25T22:12:40.365Z,132.60
2022-12-25T22:15:10.587Z,118.67
2022-12-25T22:18:01.032Z,115.93
2022-12-25T22:20:35.064Z,112.72
2022-12-25T22:23:03.429Z,99.78
2022-12-25T22:25:31.592Z,90.65
2022-12-25T22:28:00.336Z,98.33
2022-12-25T22:30:29.582Z,108.22
2022-12-25T22:32:58.032Z,103.72
2022-12-25T22:35:26.336Z,105.53
2022-12-25T22:37:54.431Z,106.13
2022-12-25T22:40:22.463Z,113.30
2022-12-25T22:42:53.714Z,114.07
2022-12-25T22:45:21.879Z,119.55
2022-12-25T22:47:49.857Z,110.95
2022-12-25T22:50:19.161Z,118.78
2022-12-25T22:52:47.586Z,98.10
2022-12-25T22:55:19.243Z,117.65
2022-12-25T22:57:47.418Z,101.07
2022-12-25T23:00:15.817Z,80.70
2022-12-25T23:02:44.228Z,87.63
2022-12-25T23:05:12.587Z,84.93
2022-12-25T23:07:42.436Z,89.05
2022-12-25T23:10:11.689Z,72.07
2022-12-25T23:12:58.726Z,61.35
2022-12-25T23:15:28.467Z,67.90
2022-12-25T23:18:14.426Z,84.67
2022-12-25T23:21:01.480Z,77.70
2022-12-25T23:23:47.724Z,78.00
2022-12-25T23:26:17.550Z,94.50
2022-12-25T23:29:04.037Z,76.72
2022-12-25T23:31:36.287Z,78.17
2022-12-25T23:34:05.356Z,40.45
2022-12-25T23:36:34.792Z,41.80
2022-12-25T23:39:09.673Z,41.15
2022-12-25T23:41:43.410Z,40.20
2022-12-25T23:44:13.289Z,34.30
2022-12-25T23:46:53.385Z,41.78
2022-12-25T23:49:23.099Z,40.35
2022-12-25T23:51:52.161Z,36.17
2022-12-25T23:54:23.481Z,42.13
2022-12-25T23:56:52.862Z,42.07
2022-12-25T23:59:21.008Z,44.42
